Terminal Aerodrome Forecast
Issued by NWS

Home | Current Version | Previous Version | Text Only | Print | Product List | Glossary On
Versions: 1 2 3 4 5 6 7 8 9 10 11 12 13 14 15 16 17
000
FTAK31 PAFA 131731
TAFABT
TAF
PABT 131731Z 1318/1418 05013G19KT P6SM FEW080 SCT220
     FM140200 04012G20KT P6SM OVC050
     FM140500 05010KT 1 1/2SM -SN BR OVC015
     FM140800 03004KT 1/2SM SN FG OVC015=

USA.gov is the U.S. government's official web portal to all federal, state and local government web resources and services.